АЭРОДРОМУУД

ICAO:
ZMCK
Нэр:
УЛААНБААТАР / Чингис Хаан
Ахц:
473849N 1064912E
No records found.
METAR
No records found.
TAF
TAF ZMCK 022240Z 0300/0406 VRB02MPS 9999 FEW030CB BKN033 TX25/0307Z TN12/0321Z TEMPO 0300/0312 VRB08MPS 6000 TSRA SCT027CB BKN030 BECMG 0304/0306 35007MPS BECMG 0311/0313 VRB02MPS FEW030CB SCT033=
- 23 minutes ago -
TAF ZMCK 022240Z 0300/0406 VRB02MPS 9999 FEW030CB BKN033 TX25/0307Z TN12/0321Z TEMPO 0300/0312 VRB08MPS 6000 TSRA SCT027CB BKN030 BECMG 0304/0306 35007MPS BECMG 0311/0313 VRB02MPS FEW030CB SCT033=
- 23 minutes ago -
TAF ZMCK 020458Z 0206/0312 16008MPS 9999 FEW030CB SCT033 TX31/0207Z TN17/0221Z PROB40 TEMPO 0208/0216 VRB10G15MPS TSRA SCT027CB SCT030 TEMPO 0217/0310 VRB08MPS TSRA SCT027CB BKN030 BECMG 0218/0220 VRB02MPS BECMG 0305/0307 34007MPS=
- 18 hours ago -
TAF ZMCK 020458Z 0206/0312 16008MPS 9999 FEW030CB SCT033 TX31/0207Z TN17/0221Z PROB40 TEMPO 0208/0216 VRB10G15MPS TSRA SCT027CB SCT030 TEMPO 0217/0310 VRB08MPS TSRA SCT027CB BKN030 BECMG 0218/0220 VRB02MPS BECMG 0305/0307 34007MPS=
- 18 hours ago -